Time;durP1;ratioP1;P1;durP2;ratioP2;P2;SDS_P1;SDS_P2;PMS_P1;PMS_P2;Temp;Humidity;BMP_temperature;BMP_pressure;BME280_temperature;BME280_humidity;BME280_pressure;Samples;Min_cycle;Max_cycle;Signal;HPM_P1;HPM_P2
2021/05/14 00:00:56;;;;;;;34.22;29.83;;;11.50;99.90;;;;;;5071728;28;20223;-87
2021/05/14 00:03:23;;;;;;;30.98;26.42;;;11.50;99.90;;;;;;5054710;28;20199;-88
2021/05/14 00:05:49;;;;;;;31.90;27.55;;;11.40;99.90;;;;;;5054311;28;20215;-88
2021/05/14 00:08:16;;;;;;;32.30;28.58;;;11.50;99.90;;;;;;5057613;28;20184;-89
2021/05/14 00:10:43;;;;;;;35.50;28.83;;;11.40;99.90;;;;;;5053442;28;20644;-88
2021/05/14 00:13:10;;;;;;;33.75;27.92;;;11.50;99.90;;;;;;5053965;28;20191;-88
2021/05/14 00:15:37;;;;;;;34.80;28.23;;;11.40;99.90;;;;;;5053938;28;20192;-89
2021/05/14 00:18:04;;;;;;;32.63;29.17;;;11.40;99.90;;;;;;5053941;28;20732;-88
2021/05/14 00:20:30;;;;;;;31.42;27.60;;;11.30;99.90;;;;;;5054687;28;20208;-87
2021/05/14 00:22:57;;;;;;;32.92;29.55;;;11.30;99.90;;;;;;5054223;28;20191;-90
2021/05/14 00:25:24;;;;;;;34.67;30.42;;;11.40;99.90;;;;;;5055922;28;20211;-88
2021/05/14 00:27:51;;;;;;;36.88;32.17;;;11.30;99.90;;;;;;5053763;28;20188;-88
2021/05/14 00:30:18;;;;;;;37.00;32.55;;;11.30;99.90;;;;;;5053070;28;20192;-88
2021/05/14 00:32:44;;;;;;;35.92;31.48;;;11.20;99.90;;;;;;5053603;28;20195;-88
2021/05/14 00:35:12;;;;;;;38.50;33.90;;;11.30;99.90;;;;;;5053316;28;20190;-88
2021/05/14 00:37:38;;;;;;;40.05;33.38;;;11.20;99.90;;;;;;5053453;28;20203;-88
2021/05/14 00:40:06;;;;;;;38.47;34.28;;;11.10;99.90;;;;;;5053013;28;20299;-89
2021/05/14 00:42:34;;;;;;;39.80;30.75;;;11.20;99.90;;;;;;5053506;28;20275;-88
2021/05/14 00:45:00;;;;;;;41.30;34.60;;;11.20;99.90;;;;;;5052795;28;20715;-90
2021/05/14 00:47:27;;;;;;;38.33;32.22;;;11.20;99.90;;;;;;5053131;28;20188;-89
2021/05/14 00:49:54;;;;;;;40.38;34.67;;;11.10;99.90;;;;;;5053091;28;20188;-90
2021/05/14 00:52:21;;;;;;;40.88;36.10;;;11.20;99.90;;;;;;5053212;28;20200;-89
2021/05/14 00:54:48;;;;;;;38.17;33.90;;;11.20;99.90;;;;;;5053260;28;20184;-89
2021/05/14 00:57:16;;;;;;;46.08;38.38;;;11.10;99.90;;;;;;5052910;28;20181;-90
2021/05/14 00:59:44;;;;;;;45.83;39.22;;;11.10;99.90;;;;;;5053299;28;20239;-90
2021/05/14 01:02:10;;;;;;;49.17;38.85;;;11.10;99.90;;;;;;5053444;28;20188;-89
2021/05/14 01:04:37;;;;;;;41.42;36.25;;;11.10;99.90;;;;;;5053089;28;20222;-90
2021/05/14 01:07:05;;;;;;;40.47;35.47;;;11.00;99.90;;;;;;5053158;28;20216;-89
2021/05/14 01:09:33;;;;;;;49.72;39.03;;;11.10;99.90;;;;;;5052844;28;20253;-90
2021/05/14 01:12:00;;;;;;;45.28;38.03;;;11.10;99.90;;;;;;5053624;28;20183;-90
2021/05/14 01:14:26;;;;;;;43.10;36.95;;;11.10;99.90;;;;;;5065180;28;20247;-90
2021/05/14 01:16:54;;;;;;;40.80;35.70;;;11.10;99.90;;;;;;5068783;28;20199;-89
2021/05/14 01:19:20;;;;;;;44.42;35.30;;;11.00;99.90;;;;;;5057827;28;20215;-90
2021/05/14 01:21:48;;;;;;;40.47;36.13;;;11.00;99.90;;;;;;5053677;28;20239;-89
2021/05/14 01:24:14;;;;;;;39.35;34.30;;;11.10;99.90;;;;;;5053388;28;20196;-90
2021/05/14 01:26:40;;;;;;;42.25;35.88;;;11.00;99.90;;;;;;5053025;28;20734;-90
2021/05/14 01:29:09;;;;;;;45.10;36.15;;;11.00;99.90;;;;;;5054679;28;20192;-90
2021/05/14 01:31:36;;;;;;;36.85;32.95;;;10.90;99.90;;;;;;5054626;28;20192;-90
2021/05/14 01:34:04;;;;;;;39.90;35.28;;;10.90;99.90;;;;;;5054054;28;20223;-90
2021/05/14 01:36:30;;;;;;;40.28;33.55;;;11.00;99.90;;;;;;5055231;28;20237;-89
2021/05/14 01:39:06;;;;;;;44.08;34.78;;;10.90;99.90;;;;;;5075615;28;20204;-88
2021/05/14 01:41:33;;;;;;;40.95;33.53;;;10.90;99.90;;;;;;5076835;28;20200;-89
2021/05/14 01:44:00;;;;;;;42.58;32.38;;;11.00;99.90;;;;;;5076810;28;20183;-89
2021/05/14 01:46:26;;;;;;;43.20;34.42;;;11.00;99.90;;;;;;5060982;28;20547;-89
2021/05/14 01:48:54;;;;;;;46.05;34.92;;;11.00;99.90;;;;;;5060384;28;20224;-89
2021/05/14 01:51:21;;;;;;;39.58;34.17;;;11.00;99.90;;;;;;5060734;28;20252;-88
2021/05/14 01:53:49;;;;;;;40.20;32.35;;;11.00;99.90;;;;;;5061154;28;20196;-88
2021/05/14 01:56:16;;;;;;;39.15;33.83;;;11.00;99.90;;;;;;5060585;28;20192;-88
2021/05/14 01:58:42;;;;;;;40.50;34.60;;;11.00;99.90;;;;;;5059271;28;20185;-88
2021/05/14 02:01:09;;;;;;;44.50;36.60;;;11.00;99.90;;;;;;5060497;28;20239;-89
2021/05/14 02:03:36;;;;;;;37.03;32.88;;;11.00;99.90;;;;;;5061026;28;20239;-88
2021/05/14 02:06:02;;;;;;;43.53;36.33;;;11.10;99.90;;;;;;5061404;28;20196;-90
2021/05/14 02:08:28;;;;;;;39.67;33.97;;;11.00;99.90;;;;;;5063749;28;20279;-88
2021/05/14 02:10:55;;;;;;;41.50;34.67;;;11.00;99.90;;;;;;5067677;28;20180;-89
2021/05/14 02:13:22;;;;;;;42.50;37.28;;;11.00;99.90;;;;;;5070046;28;20198;-88
2021/05/14 02:15:49;;;;;;;42.28;33.15;;;11.00;99.90;;;;;;5067119;28;20247;-88
2021/05/14 02:18:15;;;;;;;40.83;34.20;;;10.90;99.90;;;;;;5069544;28;20252;-89
2021/05/14 02:20:42;;;;;;;39.13;34.92;;;10.90;99.90;;;;;;5071120;28;20215;-89
2021/05/14 02:23:08;;;;;;;36.50;32.10;;;10.80;99.90;;;;;;5070815;28;20271;-88
2021/05/14 02:25:35;;;;;;;36.42;30.95;;;10.80;99.90;;;;;;5060466;28;20184;-88
2021/05/14 02:28:02;;;;;;;37.03;32.00;;;10.80;99.90;;;;;;5059039;28;20196;-87
2021/05/14 02:30:30;;;;;;;35.85;31.48;;;10.70;99.90;;;;;;5059731;28;20196;-87
2021/05/14 02:32:56;;;;;;;38.90;31.88;;;10.70;99.90;;;;;;5059652;28;20188;-89
2021/05/14 02:35:23;;;;;;;34.33;30.30;;;10.60;99.90;;;;;;5060676;28;20188;-88
2021/05/14 02:37:49;;;;;;;34.22;29.70;;;10.70;99.90;;;;;;5059797;28;20246;-87
2021/05/14 02:40:16;;;;;;;35.30;31.48;;;10.60;99.90;;;;;;5060084;28;20212;-89
2021/05/14 02:42:42;;;;;;;36.83;29.90;;;10.60;99.90;;;;;;5062377;28;20215;-87
2021/05/14 02:45:10;;;;;;;37.70;32.50;;;10.50;99.90;;;;;;5059506;28;20188;-87
2021/05/14 02:47:37;;;;;;;39.55;32.60;;;10.50;99.90;;;;;;5059685;28;20199;-87
2021/05/14 02:50:05;;;;;;;33.47;29.67;;;10.60;99.90;;;;;;5057153;28;20643;-88
2021/05/14 02:52:31;;;;;;;33.95;30.17;;;10.50;99.90;;;;;;5059865;28;20731;-88
2021/05/14 02:54:58;;;;;;;41.55;33.38;;;10.50;99.90;;;;;;5060234;28;20636;-88
2021/05/14 02:57:24;;;;;;;37.00;33.03;;;10.50;99.90;;;;;;5060386;28;20290;-87
2021/05/14 02:59:50;;;;;;;40.92;34.78;;;10.40;99.90;;;;;;5059598;28;20254;-89
2021/05/14 03:02:19;;;;;;;43.58;38.72;;;10.50;99.90;;;;;;5060125;28;20203;-90
2021/05/14 03:04:46;;;;;;;47.45;35.10;;;10.50;99.90;;;;;;5058822;28;20191;-89
2021/05/14 03:07:13;;;;;;;37.20;32.97;;;10.50;99.90;;;;;;5058257;28;20334;-89
2021/05/14 03:09:39;;;;;;;40.33;33.25;;;10.50;99.90;;;;;;5059394;28;20188;-89
2021/05/14 03:12:07;;;;;;;59.17;36.70;;;10.60;99.90;;;;;;5060349;28;20188;-88
2021/05/14 03:14:33;;;;;;;45.78;35.35;;;10.50;99.90;;;;;;5060891;28;20176;-89
2021/05/14 03:17:00;;;;;;;44.88;36.95;;;10.50;99.90;;;;;;5057602;28;20548;-88
2021/05/14 03:19:26;;;;;;;39.33;31.45;;;10.60;99.90;;;;;;5055850;28;20261;-89
2021/05/14 03:21:54;;;;;;;36.80;31.50;;;10.60;99.90;;;;;;5055308;28;20263;-89
2021/05/14 03:24:20;;;;;;;39.17;32.03;;;10.50;99.90;;;;;;5068372;28;20213;-89
2021/05/14 03:26:49;;;;;;;43.55;33.47;;;10.50;99.90;;;;;;5055395;28;20203;-89
2021/05/14 03:29:16;;;;;;;42.50;34.70;;;10.50;99.90;;;;;;5070554;28;20187;-89
2021/05/14 03:31:42;;;;;;;37.15;32.10;;;10.50;99.90;;;;;;5075424;28;20191;-89
2021/05/14 03:34:08;;;;;;;37.08;31.65;;;10.40;99.90;;;;;;5057179;28;20192;-90
2021/05/14 03:36:35;;;;;;;35.40;30.60;;;10.40;99.90;;;;;;5055072;28;20249;-89
2021/05/14 03:39:08;;;;;;;36.63;31.52;;;10.40;99.90;;;;;;5055225;28;20184;-90
2021/05/14 03:41:44;;;;;;;46.42;34.47;;;10.40;99.90;;;;;;5055345;28;20180;-89
2021/05/14 03:44:11;;;;;;;41.45;33.05;;;10.40;99.90;;;;;;5055384;28;20184;-90
2021/05/14 03:46:37;;;;;;;36.25;31.90;;;10.40;99.90;;;;;;5055004;28;20188;-90
2021/05/14 03:49:04;;;;;;;37.67;31.50;;;10.30;99.90;;;;;;5054716;28;20659;-89
2021/05/14 03:51:31;;;;;;;42.58;33.78;;;10.30;99.90;;;;;;5058560;28;20531;-89
2021/05/14 03:53:57;;;;;;;39.08;32.85;;;10.30;99.90;;;;;;5060155;28;20188;-90
2021/05/14 03:56:25;;;;;;;43.42;33.20;;;10.20;99.90;;;;;;5054868;28;20181;-88
2021/05/14 03:58:51;;;;;;;35.75;30.45;;;10.20;99.90;;;;;;5054565;28;20782;-88
2021/05/14 04:01:17;;;;;;;44.00;36.70;;;10.10;99.90;;;;;;5054677;28;20214;-88
2021/05/14 04:03:44;;;;;;;36.53;32.67;;;10.10;99.90;;;;;;5054861;28;20670;-88
2021/05/14 04:06:11;;;;;;;36.85;30.13;;;10.10;99.90;;;;;;5054064;28;20199;-90
2021/05/14 04:08:37;;;;;;;35.25;31.20;;;10.10;99.90;;;;;;5054087;28;20667;-90
2021/05/14 04:11:21;;;;;;;37.85;30.08;;;10.10;99.90;;;;;;5056426;28;20211;-90
2021/05/14 04:16:35;;;;;;;41.95;32.85;;;10.10;99.90;;;;;;5029835;28;20183;-90
2021/05/14 04:19:02;;;;;;;39.58;31.83;;;10.10;99.90;;;;;;5055931;28;20251;-90
2021/05/14 04:21:28;;;;;;;41.58;32.38;;;10.10;99.90;;;;;;5055399;28;20192;-89
2021/05/14 04:23:55;;;;;;;45.70;32.70;;;10.10;99.90;;;;;;5054929;28;20229;-89
2021/05/14 04:26:21;;;;;;;41.83;33.75;;;10.10;99.90;;;;;;5054166;28;20324;-89
2021/05/14 04:28:49;;;;;;;41.38;34.70;;;10.20;99.90;;;;;;5054550;28;20194;-89
2021/05/14 04:31:15;;;;;;;41.90;32.92;;;10.30;99.90;;;;;;5054710;28;20223;-88
2021/05/14 04:33:41;;;;;;;39.58;32.67;;;10.30;99.90;;;;;;5055418;28;20231;-89
2021/05/14 04:36:26;;;;;;;48.63;36.08;;;10.30;99.90;;;;;;5055111;28;20549;-94
2021/05/14 04:38:59;;;;;;;45.67;31.90;;;10.40;99.90;;;;;;5057150;28;20198;-94
2021/05/14 04:41:46;;;;;;;41.58;32.00;;;10.40;99.90;;;;;;5059737;28;20212;-95
2021/05/14 04:44:18;;;;;;;36.83;30.42;;;10.50;99.90;;;;;;5058566;28;20199;-93
2021/05/14 04:47:03;;;;;;;41.65;33.75;;;10.50;99.90;;;;;;5050249;28;20192;-93
2021/05/14 04:50:00;;;;;;;39.22;31.65;;;10.50;99.90;;;;;;5059374;28;20278;-92
2021/05/14 04:52:48;;;;;;;36.85;31.67;;;10.60;99.90;;;;;;5061991;28;20188;-91
2021/05/14 04:55:25;;;;;;;36.00;29.77;;;10.70;99.90;;;;;;5059793;28;20231;-92
2021/05/14 04:58:03;;;;;;;38.90;33.28;;;10.60;99.90;;;;;;5059230;28;20188;-93
2021/05/14 05:00:31;;;;;;;39.15;30.88;;;10.70;99.90;;;;;;5059589;28;20226;-92
2021/05/14 05:02:59;;;;;;;37.25;29.80;;;10.80;99.90;;;;;;5057682;28;20188;-93
2021/05/14 05:05:25;;;;;;;36.92;31.20;;;10.80;99.90;;;;;;5061786;28;20195;-95
2021/05/14 05:07:52;;;;;;;34.00;30.42;;;10.80;99.90;;;;;;5057074;28;20184;-93
2021/05/14 05:10:20;;;;;;;36.72;29.63;;;10.90;99.90;;;;;;5058632;28;20216;-92
2021/05/14 05:12:47;;;;;;;32.55;28.60;;;10.90;99.90;;;;;;5061686;28;20191;-92
2021/05/14 05:15:14;;;;;;;29.80;26.30;;;10.90;99.90;;;;;;5065254;28;20306;-90
2021/05/14 05:17:42;;;;;;;32.78;27.80;;;11.00;99.90;;;;;;5062045;28;20191;-92
2021/05/14 05:20:09;;;;;;;34.22;29.10;;;11.00;99.90;;;;;;5057691;28;20647;-91
2021/05/14 05:22:36;;;;;;;28.92;25.48;;;11.00;99.90;;;;;;5059460;28;20192;-92
2021/05/14 05:25:04;;;;;;;38.20;28.17;;;11.10;99.90;;;;;;5045844;28;20304;-93
2021/05/14 05:27:31;;;;;;;31.90;28.40;;;11.20;99.90;;;;;;5058379;28;20186;-88
2021/05/14 05:29:57;;;;;;;28.90;25.35;;;11.20;99.90;;;;;;5056409;28;20238;-89
2021/05/14 05:32:24;;;;;;;30.15;26.40;;;11.20;99.90;;;;;;5063149;28;20654;-89
2021/05/14 05:34:51;;;;;;;26.27;23.35;;;11.30;99.90;;;;;;5060480;28;20337;-90
2021/05/14 05:37:20;;;;;;;23.77;21.33;;;11.40;99.90;;;;;;5073383;28;20188;-89
2021/05/14 05:39:47;;;;;;;24.27;21.50;;;11.40;99.90;;;;;;5073978;28;20204;-89
2021/05/14 05:42:13;;;;;;;25.27;20.23;;;11.50;99.90;;;;;;5053381;28;20251;-88
2021/05/14 05:44:40;;;;;;;22.80;19.92;;;11.40;99.90;;;;;;5056378;28;20184;-89
2021/05/14 05:47:06;;;;;;;25.33;21.73;;;11.50;99.90;;;;;;5056723;28;20671;-91
2021/05/14 05:49:33;;;;;;;23.17;20.70;;;11.60;99.90;;;;;;5057078;28;20284;-87
2021/05/14 05:52:00;;;;;;;23.25;20.75;;;11.70;99.90;;;;;;5057120;28;20196;-88
2021/05/14 05:54:26;;;;;;;22.52;20.27;;;11.80;99.90;;;;;;5056790;28;20195;-89
2021/05/14 05:56:57;;;;;;;24.92;21.35;;;11.90;99.90;;;;;;5057325;28;20631;-89
2021/05/14 05:59:23;;;;;;;21.15;19.00;;;12.00;99.90;;;;;;5057052;28;20272;-89
2021/05/14 06:01:50;;;;;;;25.40;20.02;;;12.00;99.90;;;;;;5057237;28;20190;-89
2021/05/14 06:04:16;;;;;;;20.13;17.92;;;12.10;99.90;;;;;;5057009;28;20533;-88
2021/05/14 06:06:43;;;;;;;20.25;17.50;;;12.20;99.90;;;;;;5057054;28;20230;-90
2021/05/14 06:09:13;;;;;;;19.35;16.45;;;12.20;99.90;;;;;;5056610;28;20186;-90
2021/05/14 06:11:39;;;;;;;21.33;19.08;;;12.20;99.90;;;;;;5061525;28;20212;-87
2021/05/14 06:14:05;;;;;;;21.15;18.85;;;12.30;99.90;;;;;;5056694;28;20190;-88
2021/05/14 06:16:32;;;;;;;20.77;17.17;;;12.30;99.90;;;;;;5056463;28;20199;-87
2021/05/14 06:19:03;;;;;;;18.65;16.65;;;12.40;99.90;;;;;;5055906;28;20188;-88
2021/05/14 06:21:30;;;;;;;18.92;16.42;;;12.40;99.90;;;;;;5056227;28;20212;-88
2021/05/14 06:23:57;;;;;;;19.50;16.88;;;12.50;99.90;;;;;;5056053;28;20648;-88
2021/05/14 06:26:24;;;;;;;20.02;17.67;;;12.50;99.90;;;;;;5057137;28;20188;-88
2021/05/14 06:28:50;;;;;;;19.80;16.48;;;12.60;99.90;;;;;;5055703;28;20196;-87
2021/05/14 06:31:17;;;;;;;18.55;16.55;;;12.70;99.90;;;;;;5055495;28;20200;-87
2021/05/14 06:33:43;;;;;;;21.15;18.85;;;12.80;99.90;;;;;;5066212;28;20187;-86
2021/05/14 06:36:11;;;;;;;20.23;17.75;;;12.80;99.90;;;;;;5076413;28;20283;-88
2021/05/14 06:38:38;;;;;;;20.80;17.13;;;12.70;99.90;;;;;;5066566;28;20199;-86
2021/05/14 06:41:04;;;;;;;19.15;16.70;;;12.70;99.90;;;;;;5056706;28;20216;-87
2021/05/14 06:43:31;;;;;;;18.60;16.60;;;12.70;99.90;;;;;;5058808;28;20205;-86
2021/05/14 06:45:57;;;;;;;19.40;16.90;;;12.60;99.90;;;;;;5060201;28;20179;-87
2021/05/14 06:48:24;;;;;;;20.40;16.73;;;12.80;99.90;;;;;;5075287;28;20183;-86
2021/05/14 06:50:50;;;;;;;18.85;16.85;;;12.90;99.90;;;;;;5055297;28;20195;-87
2021/05/14 06:53:17;;;;;;;18.20;16.30;;;12.90;99.90;;;;;;5055447;28;20575;-84
2021/05/14 06:55:43;;;;;;;17.75;15.85;;;13.00;99.90;;;;;;5055801;28;20192;-85
2021/05/14 06:58:10;;;;;;;19.25;17.25;;;13.20;99.90;;;;;;5056095;28;20225;-86
2021/05/14 07:00:37;;;;;;;18.30;16.23;;;13.20;99.90;;;;;;5055191;28;20234;-85
2021/05/14 07:03:03;;;;;;;26.30;17.70;;;13.10;99.90;;;;;;5055525;28;20194;-85
2021/05/14 07:05:30;;;;;;;19.23;16.00;;;13.20;99.90;;;;;;5055439;28;20574;-85
2021/05/14 07:07:56;;;;;;;18.02;15.68;;;13.20;99.90;;;;;;5055310;28;20529;-85
2021/05/14 07:10:23;;;;;;;22.42;18.88;;;13.30;99.90;;;;;;5055375;28;20279;-85
2021/05/14 07:12:50;;;;;;;19.98;16.95;;;13.40;99.90;;;;;;5055412;28;20595;-86
2021/05/14 07:15:16;;;;;;;23.20;17.77;;;13.50;99.90;;;;;;5059576;28;20267;-87
2021/05/14 07:17:43;;;;;;;19.10;17.10;;;13.60;99.90;;;;;;5064582;28;20200;-86
2021/05/14 07:20:11;;;;;;;21.58;18.90;;;13.70;99.90;;;;;;5066714;28;20276;-86
2021/05/14 07:22:37;;;;;;;25.33;21.20;;;13.70;99.90;;;;;;5061653;28;20275;-86
2021/05/14 07:25:04;;;;;;;22.08;19.65;;;13.80;99.90;;;;;;5056213;28;20239;-88
2021/05/14 07:27:31;;;;;;;21.38;18.45;;;14.00;99.90;;;;;;5054522;28;20194;-88
2021/05/14 07:29:57;;;;;;;21.27;18.77;;;14.10;99.90;;;;;;5071809;28;20172;-88
2021/05/14 07:32:23;;;;;;;19.23;17.23;;;14.30;99.90;;;;;;5076543;28;20346;-87
2021/05/14 07:34:52;;;;;;;18.80;16.85;;;14.50;99.90;;;;;;5069762;28;20192;-85
2021/05/14 07:37:19;;;;;;;19.20;17.20;;;14.40;99.90;;;;;;5057708;28;20678;-85
2021/05/14 07:39:45;;;;;;;21.30;18.10;;;14.60;99.90;;;;;;5043819;28;20268;-86
2021/05/14 07:42:11;;;;;;;16.90;15.10;;;14.60;99.90;;;;;;5046615;28;20259;-86
2021/05/14 07:44:38;;;;;;;16.20;14.50;;;14.60;99.90;;;;;;5043744;28;20642;-86
2021/05/14 07:47:05;;;;;;;16.08;14.32;;;14.70;99.90;;;;;;5060975;28;20176;-85
2021/05/14 07:49:32;;;;;;;15.15;13.55;;;14.70;99.90;;;;;;5059693;28;20252;-84
2021/05/14 07:51:59;;;;;;;18.52;15.10;;;14.70;99.90;;;;;;5057745;28;20256;-84
2021/05/14 07:54:26;;;;;;;14.48;12.38;;;14.60;99.90;;;;;;5051352;28;20187;-86
2021/05/14 07:56:52;;;;;;;17.73;13.32;;;14.60;99.90;;;;;;5044536;28;20192;-83
2021/05/14 07:59:18;;;;;;;14.48;12.52;;;14.60;99.90;;;;;;5050316;28;20207;-85
2021/05/14 08:01:44;;;;;;;13.93;12.50;;;14.70;99.90;;;;;;5045830;28;20210;-84
2021/05/14 08:04:11;;;;;;;13.70;12.25;;;14.70;99.90;;;;;;5044364;28;20198;-85
2021/05/14 08:06:37;;;;;;;16.63;14.15;;;14.80;99.90;;;;;;5060024;28;20274;-85
2021/05/14 08:09:07;;;;;;;18.20;12.35;;;14.90;99.90;;;;;;5051944;28;20305;-84
2021/05/14 08:11:33;;;;;;;13.27;11.88;;;14.90;99.90;;;;;;5048137;28;20191;-84
2021/05/14 08:14:00;;;;;;;13.55;12.15;;;14.80;99.90;;;;;;5046038;28;20194;-84
2021/05/14 08:16:26;;;;;;;14.45;12.52;;;14.70;99.90;;;;;;5043339;28;20191;-84
2021/05/14 08:18:52;;;;;;;14.70;12.98;;;14.80;99.90;;;;;;5053090;28;20208;-85
2021/05/14 08:21:20;;;;;;;19.00;14.52;;;15.00;99.90;;;;;;5045154;28;20207;-86
2021/05/14 08:23:47;;;;;;;20.15;14.32;;;15.10;99.90;;;;;;5040277;28;20211;-84
2021/05/14 08:26:14;;;;;;;15.15;13.55;;;15.20;99.90;;;;;;5035904;28;20199;-84
2021/05/14 08:28:41;;;;;;;18.77;12.63;;;15.30;99.90;;;;;;5045984;28;20650;-83
2021/05/14 08:31:07;;;;;;;19.92;16.95;;;15.50;99.90;;;;;;5053829;28;20187;-84
2021/05/14 08:33:34;;;;;;;19.10;17.10;;;15.60;99.90;;;;;;5034816;28;20601;-84
2021/05/14 08:36:00;;;;;;;18.52;15.50;;;15.50;99.90;;;;;;5043476;28;20228;-86
2021/05/14 08:38:27;;;;;;;18.27;15.95;;;15.60;99.90;;;;;;5036173;28;20227;-84
2021/05/14 08:40:53;;;;;;;17.52;15.63;;;15.80;99.90;;;;;;5042828;28;20218;-83
2021/05/14 08:43:22;;;;;;;16.30;14.60;;;15.80;99.90;;;;;;5040271;28;20204;-84
2021/05/14 08:45:49;;;;;;;23.27;17.10;;;15.90;99.90;;;;;;5034097;28;20199;-83
2021/05/14 08:48:16;;;;;;;17.80;13.90;;;15.80;99.90;;;;;;5034556;28;20198;-84
2021/05/14 08:50:43;;;;;;;14.02;12.40;;;15.70;99.90;;;;;;5034383;28;20195;-85
2021/05/14 08:53:10;;;;;;;13.02;11.73;;;15.70;99.90;;;;;;5036008;28;20195;-84
2021/05/14 08:55:37;;;;;;;13.73;12.15;;;15.70;99.90;;;;;;5038238;28;20583;-85
2021/05/14 08:58:03;;;;;;;14.65;12.65;;;15.90;99.90;;;;;;5069222;28;20170;-83
2021/05/14 09:00:31;;;;;;;19.33;14.25;;;15.80;99.90;;;;;;5072922;28;20748;-84
2021/05/14 09:02:57;;;;;;;9.30;8.30;;;15.80;99.90;;;;;;5037807;28;20199;-85
2021/05/14 09:05:25;;;;;;;10.88;8.98;;;15.80;99.90;;;;;;5034877;28;20189;-84
2021/05/14 09:07:52;;;;;;;13.32;9.65;;;15.80;99.90;;;;;;5036507;28;20192;-84
2021/05/14 09:10:20;;;;;;;8.32;7.30;;;15.90;99.90;;;;;;5033699;28;20197;-83
2021/05/14 09:12:46;;;;;;;11.32;9.95;;;15.90;99.90;;;;;;5035636;28;20184;-84
2021/05/14 09:15:21;;;;;;;13.27;9.02;;;15.90;99.90;;;;;;5037936;28;20186;-84
2021/05/14 09:18:05;;;;;;;12.23;9.50;;;15.90;99.90;;;;;;5057730;28;20272;-85
2021/05/14 09:20:34;;;;;;;11.77;8.93;;;16.00;99.90;;;;;;5056814;28;20226;-83
2021/05/14 09:23:01;;;;;;;10.20;9.23;;;16.10;99.90;;;;;;5042111;28;20199;-83
2021/05/14 09:25:27;;;;;;;7.95;6.97;;;16.20;99.90;;;;;;5052885;28;20187;-84
2021/05/14 09:27:53;;;;;;;8.50;7.65;;;16.40;99.90;;;;;;5054393;28;20192;-85
2021/05/14 09:30:20;;;;;;;11.10;9.55;;;16.70;99.90;;;;;;5057401;28;20183;-84
2021/05/14 09:32:46;;;;;;;14.82;8.10;;;16.90;99.90;;;;;;5071012;28;20194;-87
2021/05/14 09:35:13;;;;;;;10.18;7.60;;;16.80;99.90;;;;;;5070790;28;20215;-87
2021/05/14 09:37:48;;;;;;;8.93;6.60;;;16.90;99.90;;;;;;5073564;28;20174;-89
2021/05/14 09:40:17;;;;;;;7.25;6.53;;;17.00;99.90;;;;;;5074211;28;20206;-89
2021/05/14 09:42:44;;;;;;;6.53;5.85;;;17.20;99.90;;;;;;5061325;28;20187;-87
2021/05/14 09:45:28;;;;;;;6.65;5.07;;;17.20;99.90;;;;;;5054716;28;20209;-87
2021/05/14 09:48:00;;;;;;;5.78;5.10;;;17.10;99.90;;;;;;5048220;28;20229;-86
2021/05/14 09:50:32;;;;;;;5.00;3.90;;;17.20;99.90;;;;;;5054391;28;20195;-87
2021/05/14 09:53:08;;;;;;;4.78;3.90;;;17.20;99.90;;;;;;5049048;28;20202;-86
2021/05/14 09:55:37;;;;;;;6.25;5.28;;;17.20;99.90;;;;;;5037309;28;20192;-88
2021/05/14 09:58:16;;;;;;;9.73;6.35;;;17.40;99.90;;;;;;5054789;28;20215;-88
2021/05/14 10:00:43;;;;;;;5.28;4.78;;;17.20;99.90;;;;;;5054026;28;20322;-87
2021/05/14 10:03:11;;;;;;;6.95;3.10;;;17.20;99.90;;;;;;5038711;28;20192;-89
2021/05/14 10:05:39;;;;;;;5.47;2.60;;;17.20;99.90;;;;;;5049665;28;20213;-87
2021/05/14 10:08:06;;;;;;;5.63;4.05;;;17.10;99.90;;;;;;5042534;28;20271;-87
2021/05/14 10:10:35;;;;;;;4.93;4.20;;;17.30;99.90;;;;;;5042356;28;20192;-87
2021/05/14 10:13:02;;;;;;;3.70;3.20;;;17.60;99.90;;;;;;5038420;28;20272;-90
2021/05/14 10:15:29;;;;;;;4.30;3.50;;;17.70;99.90;;;;;;5053320;28;20192;-86
2021/05/14 10:17:56;;;;;;;4.10;3.55;;;17.70;99.90;;;;;;5062037;28;20215;-89
2021/05/14 10:20:28;;;;;;;8.23;4.22;;;17.70;99.90;;;;;;5067918;28;20239;-89
2021/05/14 10:22:56;;;;;;;5.30;3.92;;;17.70;99.90;;;;;;5060109;28;20218;-89
2021/05/14 10:25:44;;;;;;;4.28;3.55;;;17.70;99.90;;;;;;5058034;28;20626;-89
2021/05/14 10:28:12;;;;;;;8.40;4.57;;;17.80;99.90;;;;;;5050045;28;20196;-89
2021/05/14 10:31:17;;;;;;;9.63;4.43;;;18.10;99.90;;;;;;5059522;28;20192;-88
2021/05/14 10:33:44;;;;;;;6.25;4.65;;;18.10;99.90;;;;;;5056886;28;20184;-86
2021/05/14 10:36:11;;;;;;;5.78;4.53;;;18.20;99.90;;;;;;5056043;28;20607;-87
2021/05/14 10:38:39;;;;;;;4.57;3.10;;;18.40;99.90;;;;;;5056039;28;20284;-85
2021/05/14 10:41:24;;;;;;;5.90;3.53;;;18.30;99.90;;;;;;5056376;28;20682;-84
2021/05/14 10:44:05;;;;;;;8.80;4.70;;;18.10;99.90;;;;;;5044556;28;20188;-85
2021/05/14 10:46:32;;;;;;;5.95;5.00;;;17.90;99.90;;;;;;5055509;28;20246;-83
2021/05/14 10:49:04;;;;;;;7.45;4.32;;;17.60;99.90;;;;;;5055593;28;20589;-84
2021/05/14 10:51:59;;;;;;;7.40;4.13;;;17.40;99.90;;;;;;5055483;28;20275;-84
2021/05/14 10:54:49;;;;;;;5.80;4.00;;;17.20;99.90;;;;;;5055162;28;20663;-84
2021/05/14 10:57:50;;;;;;;6.45;4.90;;;17.00;99.90;;;;;;5055215;28;20184;-83
2021/05/14 11:00:30;;;;;;;5.28;4.32;;;17.00;99.90;;;;;;5052365;28;20223;-83
2021/05/14 11:03:31;;;;;;;5.82;4.15;;;17.50;99.90;;;;;;5054953;28;20184;-85
2021/05/14 11:06:09;;;;;;;4.22;3.83;;;18.00;99.90;;;;;;5052922;28;20188;-83
2021/05/14 11:08:45;;;;;;;6.10;5.53;;;18.10;99.90;;;;;;5055010;28;20180;-82
2021/05/14 11:11:20;;;;;;;6.05;4.22;;;18.10;99.90;;;;;;5055027;28;20191;-84
2021/05/14 11:13:48;;;;;;;5.38;4.10;;;18.30;99.90;;;;;;5055196;28;20195;-84
2021/05/14 11:16:38;;;;;;;4.47;4.05;;;18.20;99.90;;;;;;5054456;28;20180;-84
2021/05/14 11:19:22;;;;;;;5.93;4.70;;;18.30;99.90;;;;;;5054697;28;20192;-84
2021/05/14 11:22:08;;;;;;;5.00;4.05;;;18.40;99.90;;;;;;5054509;28;20758;-84
2021/05/14 11:24:37;;;;;;;8.07;3.88;;;18.80;99.90;;;;;;5056796;28;20242;-84
2021/05/14 11:27:06;;;;;;;6.20;3.78;;;19.10;99.90;;;;;;5054701;28;20181;-84
2021/05/14 11:29:35;;;;;;;3.97;3.55;;;18.80;99.90;;;;;;5054802;28;20242;-83
2021/05/14 11:32:29;;;;;;;6.00;4.70;;;18.60;99.90;;;;;;5054757;28;20196;-84
2021/05/14 11:35:04;;;;;;;8.57;3.95;;;18.40;99.90;;;;;;5054434;28;20180;-84
2021/05/14 11:37:32;;;;;;;8.13;4.47;;;18.70;99.90;;;;;;5054558;28;20195;-88
2021/05/14 11:40:09;;;;;;;4.97;3.90;;;19.30;99.90;;;;;;5059822;28;20191;-86
2021/05/14 11:42:40;;;;;;;6.72;2.90;;;19.70;99.90;;;;;;5054654;28;20192;-88
2021/05/14 11:45:08;;;;;;;5.28;4.13;;;20.10;99.90;;;;;;5054477;28;20191;-88
2021/05/14 11:47:34;;;;;;;;;;;20.40;99.90;;;;;;5055123;28;20200;-87
2021/05/14 11:50:02;;;;;;;;;;;20.90;99.90;;;;;;5056605;28;20394;-89
2021/05/14 11:52:35;;;;;;;;;;;21.30;99.90;;;;;;5056897;28;19924;-88
2021/05/14 11:55:03;;;;;;;;;;;21.70;99.90;;;;;;5055882;28;19921;-88
2021/05/14 11:57:30;;;;;;;;;;;22.00;99.90;;;;;;5056400;28;19933;-86
2021/05/14 11:59:57;;;;;;;;;;;22.50;99.90;;;;;;5054792;28;20354;-87
2021/05/14 12:02:34;;;;;;;;;;;22.70;99.90;;;;;;5054723;28;19928;-88
2021/05/14 12:05:02;;;;;;;;;;;23.10;99.90;;;;;;5044454;28;19921;-90
2021/05/14 12:07:28;;;;;;;;;;;23.10;99.90;;;;;;5062907;28;19959;-86
2021/05/14 12:10:01;;;;;;;;;;;23.50;99.90;;;;;;5066190;28;19946;-87
2021/05/14 12:12:27;;;;;;;;;;;23.30;99.90;;;;;;5078952;28;19952;-87
2021/05/14 12:15:08;;;;;;;;;;;22.40;99.90;;;;;;5071863;28;20011;-88
2021/05/14 12:17:35;;;;;;;;;;;21.50;99.90;;;;;;5063385;28;19956;-89
2021/05/14 12:20:11;;;;;;;;;;;20.80;99.90;;;;;;5073858;28;19917;-91
2021/05/14 12:22:41;;;;;;;;;;;21.00;99.90;;;;;;5072807;28;19920;-91
2021/05/14 12:25:11;;;;;;;;;;;20.90;99.90;;;;;;5059221;28;20003;-89
2021/05/14 12:27:37;;;;;;;;;;;20.80;99.90;;;;;;5057316;28;19920;-89
2021/05/14 12:30:04;;;;;;;;;;;21.20;99.90;;;;;;5057572;28;19920;-89
2021/05/14 12:32:30;;;;;;;;;;;21.80;99.90;;;;;;5056884;28;19921;-91
2021/05/14 12:34:57;;;;;;;;;;;22.80;99.90;;;;;;5055885;28;19927;-90
2021/05/14 12:37:25;;;;;;;;;;;23.90;99.90;;;;;;5043331;28;19927;-89
2021/05/14 12:39:51;;;;;;;;;;;24.30;99.90;;;;;;5036901;28;20014;-89
2021/05/14 12:42:27;;;;;;;;;;;24.80;99.90;;;;;;5048251;28;19974;-90
2021/05/14 12:44:54;;;;;;;;;;;23.80;99.90;;;;;;5036576;28;19928;-87
2021/05/14 12:47:22;;;;;;;;;;;23.10;99.90;;;;;;5035518;28;19940;-88
2021/05/14 12:49:50;;;;;;;;;;;22.10;99.90;;;;;;5042908;28;19920;-93